Time;durP1;ratioP1;P1;durP2;ratioP2;P2;SDS_P1;SDS_P2;PMS_P1;PMS_P2;Temp;Humidity;BMP_temperature;BMP_pressure;BME280_temperature;BME280_humidity;BME280_pressure;Samples;Min_cycle;Max_cycle;Signal;HPM_P1;HPM_P2
2022/03/12 00:00:48;;;;;;;;;2.00;2.00;;;;;8.09;79.63;100403.91;4979204;28;45452;-80
2022/03/12 00:03:15;;;;;;;;;1.00;1.00;;;;;8.08;79.89;100404.81;4978214;28;45547;-81
2022/03/12 00:05:54;;;;;;;;;2.00;2.00;;;;;8.04;79.24;100403.09;4979851;28;45321;-81
2022/03/12 00:08:40;;;;;;;;;2.00;1.00;;;;;8.03;79.52;100403.97;4988569;28;45518;-80
2022/03/12 00:11:05;;;;;;;;;0.00;0.00;;;;;8.01;80.23;100411.91;4997400;28;45489;-80
2022/03/12 00:13:32;;;;;;;;;1.00;1.00;;;;;8.00;80.51;100425.94;4996415;28;45341;-75
2022/03/12 00:15:58;;;;;;;;;3.00;1.50;;;;;7.96;79.63;100409.31;4996133;28;45568;-75
2022/03/12 00:18:25;;;;;;;;;4.00;1.25;;;;;7.99;79.85;100421.59;4989655;28;46104;-75
2022/03/12 00:20:50;;;;;;;;;0.00;0.00;;;;;7.96;79.70;100417.22;4978126;28;45494;-76
2022/03/12 00:23:21;;;;;;;;;1.00;1.00;;;;;7.95;80.21;100418.09;4978072;28;45381;-75
2022/03/12 00:25:48;;;;;;;;;4.75;1.00;;;;;7.94;79.63;100423.38;4976782;28;45453;-75
2022/03/12 00:28:17;;;;;;;;;0.75;0.75;;;;;7.90;79.46;100424.31;4976764;28;46067;-78
2022/03/12 00:30:45;;;;;;;;;1.25;1.25;;;;;7.88;80.09;100421.72;4977374;28;45353;-76
2022/03/12 00:33:11;;;;;;;;;1.50;0.00;;;;;7.94;79.60;100426.91;4991732;28;45507;-76
2022/03/12 00:35:37;;;;;;;;;0.00;0.00;;;;;7.93;79.60;100424.28;4996688;28;45420;-76
2022/03/12 00:38:03;;;;;;;;;0.50;0.50;;;;;7.96;79.74;100432.16;4994739;28;45986;-76
2022/03/12 00:40:29;;;;;;;;;0.00;0.00;;;;;8.01;79.93;100435.59;4980786;28;45681;-75
2022/03/12 00:42:54;;;;;;;;;1.00;1.00;;;;;8.03;79.71;100435.56;4982559;28;45307;-81
2022/03/12 00:45:20;;;;;;;;;1.00;0.00;;;;;8.05;78.69;100433.78;5001939;28;45347;-81
2022/03/12 00:47:48;;;;;;;;;2.50;1.75;;;;;8.05;80.06;100439.03;4982074;28;47299;-80
2022/03/12 00:50:13;;;;;;;;;1.00;1.00;;;;;8.13;79.79;100442.47;5000352;28;45370;-81
2022/03/12 00:52:38;;;;;;;;;0.00;0.00;;;;;8.09;78.97;100440.75;5000533;28;45402;-80
2022/03/12 00:55:04;;;;;;;;;1.00;1.00;;;;;8.18;79.08;100461.72;4997919;28;45425;-75
2022/03/12 00:57:30;;;;;;;;;2.00;1.50;;;;;8.17;79.64;100466.13;4995185;28;46361;-75
2022/03/12 00:59:55;;;;;;;;;1.00;1.00;;;;;8.20;79.15;100459.94;4996127;28;45438;-76
2022/03/12 01:02:21;;;;;;;;;1.50;1.50;;;;;8.23;78.89;100470.44;4996428;28;45840;-75
2022/03/12 01:04:46;;;;;;;;;1.25;1.00;;;;;8.28;78.97;100481.78;4996563;28;45372;-76
2022/03/12 01:07:12;;;;;;;;;1.00;1.00;;;;;8.27;78.66;100477.41;4992212;28;45438;-76
2022/03/12 01:09:39;;;;;;;;;0.00;0.00;;;;;8.31;78.39;100492.28;4993270;28;45521;-76
2022/03/12 01:12:05;;;;;;;;;1.50;1.50;;;;;8.29;79.05;100480.91;4978069;28;45400;-76
2022/03/12 01:14:31;;;;;;;;;2.00;2.00;;;;;8.29;78.50;100480.00;4995750;28;45364;-75
2022/03/12 01:16:58;;;;;;;;;2.50;1.00;;;;;8.33;78.44;100492.25;4995294;28;45558;-75
2022/03/12 01:19:24;;;;;;;;;0.75;0.75;;;;;8.33;78.74;100485.22;4980458;28;45481;-76
2022/03/12 01:21:49;;;;;;;;;1.00;1.00;;;;;8.31;78.56;100494.91;4990354;28;45309;-75
2022/03/12 01:24:15;;;;;;;;;1.25;1.25;;;;;8.35;78.03;100487.84;4996749;28;45543;-76
2022/03/12 01:26:40;;;;;;;;;1.00;1.00;;;;;8.36;78.27;100498.34;4995826;28;45632;-76
2022/03/12 01:29:07;;;;;;;;;0.00;0.00;;;;;8.36;78.38;100490.44;4983045;28;45505;-76
2022/03/12 01:31:34;;;;;;;;;1.75;1.00;;;;;8.37;78.26;100488.72;4980271;28;45478;-75
2022/03/12 01:33:59;;;;;;;;;1.00;1.00;;;;;8.33;78.42;100487.84;4990147;28;45465;-75
2022/03/12 01:36:25;;;;;;;;;1.75;0.75;;;;;8.31;78.45;100492.28;4975655;28;45587;-76
2022/03/12 01:38:52;;;;;;;;;1.00;1.00;;;;;8.27;78.01;100489.69;4975820;28;45370;-75
2022/03/12 01:41:26;;;;;;;;;1.25;1.25;;;;;8.22;78.58;100489.75;4990759;28;45381;-76
2022/03/12 01:43:53;;;;;;;;;0.50;0.25;;;;;8.19;78.71;100495.06;4975485;28;45330;-76
2022/03/12 01:46:34;;;;;;;;;2.00;2.00;;;;;8.15;78.48;100490.72;4976044;28;46569;-74
2022/03/12 01:49:06;;;;;;;;;1.75;1.75;;;;;8.10;78.27;100495.16;4987412;28;45496;-76
2022/03/12 01:51:33;;;;;;;;;1.75;1.75;;;;;8.08;78.29;100504.84;4976438;28;45458;-75
2022/03/12 01:54:00;;;;;;;;;2.00;2.00;;;;;8.01;79.09;100480.34;4976205;28;45586;-76
2022/03/12 01:56:28;;;;;;;;;1.50;1.50;;;;;8.00;78.94;100497.00;4983096;28;45434;-75
2022/03/12 01:58:54;;;;;;;;;0.75;0.75;;;;;7.97;79.00;100497.94;4991269;28;45513;-74
2022/03/12 02:01:21;;;;;;;;;0.00;0.00;;;;;7.93;79.16;100504.13;4995284;28;45312;-76
2022/03/12 02:03:47;;;;;;;;;1.50;1.50;;;;;7.90;79.20;100516.44;4994731;28;45356;-76
2022/03/12 02:06:19;;;;;;;;;4.75;1.50;;;;;7.89;79.12;100512.91;4994444;28;45409;-75
2022/03/12 02:08:48;;;;;;;;;0.00;0.00;;;;;7.88;79.12;100521.72;4993760;28;45425;-75
2022/03/12 02:11:14;;;;;;;;;2.75;1.00;;;;;7.87;79.45;100522.59;4994665;28;45362;-75
2022/03/12 02:13:40;;;;;;;;;1.00;1.00;;;;;7.83;78.92;100518.25;4994610;28;45547;-76
2022/03/12 02:16:09;;;;;;;;;1.75;1.25;;;;;7.84;78.92;100527.88;4994299;28;45508;-76
2022/03/12 02:18:37;;;;;;;;;1.00;1.00;;;;;7.77;79.75;100513.03;4970506;28;45494;-77
2022/03/12 02:21:03;;;;;;;;;1.00;1.00;;;;;7.79;79.43;100529.69;4974890;28;45502;-75
2022/03/12 02:23:29;;;;;;;;;2.00;2.00;;;;;7.72;79.42;100520.97;4975712;28;45398;-75
2022/03/12 02:26:02;;;;;;;;;1.00;1.00;;;;;7.76;79.34;100521.84;4975773;28;45554;-76
2022/03/12 02:28:27;;;;;;;;;2.00;1.00;;;;;7.75;79.38;100517.44;4976967;28;45495;-75
2022/03/12 02:30:55;;;;;;;;;2.00;1.00;;;;;7.75;79.70;100525.34;4979569;28;45535;-76
2022/03/12 02:33:31;;;;;;;;;2.50;2.00;;;;;7.72;79.09;100520.13;4994692;28;45521;-76
2022/03/12 02:35:57;;;;;;;;;4.25;1.00;;;;;7.74;78.79;100518.34;4994452;28;45410;-75
2022/03/12 02:38:27;;;;;;;;;1.00;1.00;;;;;7.72;79.11;100514.84;4992933;28;45381;-75
2022/03/12 02:40:53;;;;;;;;;2.00;2.00;;;;;7.72;79.43;100517.47;4987979;28;45476;-76
2022/03/12 02:43:25;;;;;;;;;2.00;1.00;;;;;7.74;78.73;100518.34;4984968;28;45578;-75
2022/03/12 02:45:53;;;;;;;;;1.25;1.25;;;;;7.73;79.70;100519.22;4994896;28;46659;-76
2022/03/12 02:48:19;;;;;;;;;2.25;2.25;;;;;7.70;79.29;100516.59;4992002;28;45437;-76
2022/03/12 02:50:45;;;;;;;;;2.25;2.25;;;;;7.72;80.03;100525.38;4974277;28;45533;-75
2022/03/12 02:53:10;;;;;;;;;2.00;1.00;;;;;7.69;79.45;100510.47;4994583;28;45506;-75
2022/03/12 02:55:41;;;;;;;;;1.00;1.00;;;;;7.73;79.57;100521.84;4994771;28;45341;-75
2022/03/12 02:58:09;;;;;;;;;4.00;2.00;;;;;7.73;79.83;100521.84;4988276;28;45638;-75
2022/03/12 03:00:36;;;;;;;;;0.25;0.00;;;;;7.75;79.37;100520.94;4974324;28;45448;-75
2022/03/12 03:03:03;;;;;;;;;1.00;1.00;;;;;7.77;79.51;100524.47;4974970;28;45587;-75
2022/03/12 03:08:04;;;;;;;;;0.50;0.50;;;;;7.76;80.07;100530.59;4975658;28;45736;-76
2022/03/12 03:10:41;;;;;;;;;4.50;1.50;;;;;7.77;79.28;100534.97;4974904;28;45571;-76
2022/03/12 03:13:15;;;;;;;;;4.75;4.00;;;;;7.78;79.83;100526.19;4974650;28;45485;-75
2022/03/12 03:15:42;;;;;;;;;1.25;1.25;;;;;7.75;79.53;100525.34;4974205;28;46145;-76
2022/03/12 03:18:10;;;;;;;;;6.25;2.00;;;;;7.75;79.04;100534.09;4976185;28;45475;-75
2022/03/12 03:20:36;;;;;;;;;2.50;1.00;;;;;7.67;79.15;100521.91;4963924;28;45552;-76
2022/03/12 03:23:01;;;;;;;;;1.00;1.00;;;;;7.68;79.22;100527.13;4974871;28;45427;-76
2022/03/12 03:25:27;;;;;;;;;1.00;1.00;;;;;7.68;79.32;100535.03;4990973;28;46532;-77
2022/03/12 03:27:52;;;;;;;;;6.00;4.00;;;;;7.65;78.74;100528.06;4975903;28;45432;-76
2022/03/12 03:30:17;;;;;;;;;3.75;2.00;;;;;7.62;78.93;100529.81;4993977;28;45503;-75
2022/03/12 03:32:43;;;;;;;;;2.50;1.25;;;;;7.61;79.28;100531.59;4993585;28;45274;-77
2022/03/12 03:35:08;;;;;;;;;1.00;1.00;;;;;7.58;79.06;100533.41;4993653;28;51143;-75
2022/03/12 03:37:33;;;;;;;;;4.25;4.25;;;;;7.52;79.81;100522.91;4985807;28;45431;-76
2022/03/12 03:39:59;;;;;;;;;1.00;1.00;;;;;7.56;79.30;100535.16;4985107;28;45365;-77
2022/03/12 03:42:24;;;;;;;;;1.75;1.75;;;;;7.55;79.45;100546.56;4977758;28;45473;-76
2022/03/12 03:44:52;;;;;;;;;1.25;1.25;;;;;7.54;79.47;100555.34;4959580;28;45303;-76
2022/03/12 03:47:17;;;;;;;;;1.75;1.75;;;;;7.50;80.05;100548.34;4977695;28;45428;-75
2022/03/12 03:49:44;;;;;;;;;2.00;2.00;;;;;7.47;79.04;100546.63;4993283;28;45580;-76
2022/03/12 03:52:10;;;;;;;;;3.00;1.00;;;;;7.44;78.97;100538.75;4997783;28;45362;-76
2022/03/12 03:54:35;;;;;;;;;1.00;1.00;;;;;7.44;79.69;100554.53;4996611;28;46193;-76
2022/03/12 03:57:01;;;;;;;;;3.75;1.75;;;;;7.35;78.81;100537.06;4979297;28;45423;-75
2022/03/12 03:59:28;;;;;;;;;0.75;0.00;;;;;7.36;79.01;100556.34;4994823;28;45502;-75
2022/03/12 04:01:53;;;;;;;;;1.00;1.00;;;;;7.33;78.62;100546.72;4995623;28;45428;-75
2022/03/12 04:04:19;;;;;;;;;2.50;1.00;;;;;7.29;79.01;100548.50;4997387;28;45388;-76
2022/03/12 04:06:44;;;;;;;;;3.50;1.75;;;;;7.27;79.40;100550.28;4997170;28;45352;-75
2022/03/12 04:09:10;;;;;;;;;3.50;2.25;;;;;7.25;79.11;100552.03;4996486;28;45410;-75
2022/03/12 04:11:35;;;;;;;;;1.00;1.00;;;;;7.24;79.76;100558.19;4983324;28;45625;-76
2022/03/12 04:14:02;;;;;;;;;0.00;0.00;;;;;7.19;79.49;100552.06;4977182;28;45511;-75
2022/03/12 04:16:31;;;;;;;;;4.00;0.00;;;;;7.17;79.14;100553.84;4976426;28;45380;-75
2022/03/12 04:18:57;;;;;;;;;1.00;1.00;;;;;7.15;79.68;100560.88;4970575;28;45389;-75
2022/03/12 04:21:22;;;;;;;;;1.00;1.00;;;;;7.11;79.86;100559.13;4996877;28;45566;-76
2022/03/12 04:23:49;;;;;;;;;0.00;0.00;;;;;7.08;79.79;100559.16;4995597;28;45402;-75
2022/03/12 04:26:16;;;;;;;;;5.75;2.75;;;;;7.08;80.21;100564.41;4979581;28;45508;-76
2022/03/12 04:28:42;;;;;;;;;1.00;1.00;;;;;7.03;79.86;100553.03;4996202;28;45606;-75
2022/03/12 04:31:08;;;;;;;;;0.75;0.75;;;;;7.01;79.63;100560.06;4996108;28;45650;-75
2022/03/12 04:33:34;;;;;;;;;4.50;1.00;;;;;6.97;79.35;100560.94;4996300;28;45995;-75
2022/03/12 04:36:03;;;;;;;;;0.25;0.25;;;;;6.96;79.57;100564.47;4996887;28;45527;-77
2022/03/12 04:38:29;;;;;;;;;5.25;3.00;;;;;6.93;79.90;100558.34;4971403;28;45346;-76
2022/03/12 04:40:55;;;;;;;;;1.00;1.00;;;;;6.87;80.10;100563.63;4979536;28;45383;-75
2022/03/12 04:43:22;;;;;;;;;0.75;0.75;;;;;6.89;80.20;100567.16;4987724;28;45519;-75
2022/03/12 04:45:49;;;;;;;;;1.00;1.00;;;;;6.86;80.18;100568.91;4975918;28;45396;-76
2022/03/12 04:48:17;;;;;;;;;1.00;1.00;;;;;6.72;79.81;100551.44;4976723;28;45611;-75
2022/03/12 04:50:43;;;;;;;;;0.00;0.00;;;;;6.80;80.02;100569.78;4976369;28;45544;-76
2022/03/12 04:53:09;;;;;;;;;2.00;1.00;;;;;6.80;80.53;100576.81;4978573;28;46038;-75
2022/03/12 04:55:39;;;;;;;;;1.00;1.00;;;;;6.76;80.67;100574.19;4995892;28;45404;-75
2022/03/12 04:58:07;;;;;;;;;2.00;2.00;;;;;6.75;81.20;100576.81;4994448;28;45382;-77
2022/03/12 05:00:38;;;;;;;;;1.00;1.00;;;;;6.68;80.40;100576.00;4996586;28;45525;-75
2022/03/12 05:03:10;;;;;;;;;1.00;1.00;;;;;6.72;81.14;100598.72;4996528;28;45486;-75
2022/03/12 05:05:40;;;;;;;;;1.00;1.00;;;;;6.69;81.10;100595.25;4984989;28;45556;-77
2022/03/12 05:08:15;;;;;;;;;0.50;0.50;;;;;6.67;81.40;100595.25;4976355;28;45396;-75
2022/03/12 05:10:43;;;;;;;;;3.75;1.00;;;;;6.68;81.05;100604.88;4976659;28;45432;-76
2022/03/12 05:13:12;;;;;;;;;1.00;1.00;;;;;6.72;81.44;100601.34;4975615;28;45482;-75
2022/03/12 05:15:38;;;;;;;;;4.00;3.00;;;;;6.70;80.71;100600.50;4985329;28;45393;-75
2022/03/12 05:18:12;;;;;;;;;2.75;2.75;;;;;6.70;80.87;100604.88;4994796;28;45611;-76
2022/03/12 05:20:40;;;;;;;;;3.00;1.00;;;;;6.69;80.41;100606.63;4976222;28;45526;-75
2022/03/12 05:23:07;;;;;;;;;0.00;0.00;;;;;6.67;81.15;100597.00;4976474;28;45471;-76
2022/03/12 05:25:41;;;;;;;;;1.00;1.00;;;;;6.67;80.68;100602.28;4976605;28;45346;-76
2022/03/12 05:28:08;;;;;;;;;0.00;0.00;;;;;6.66;81.24;100601.38;4989396;28;45372;-75
2022/03/12 05:30:34;;;;;;;;;2.00;1.00;;;;;6.59;80.49;100597.03;4995101;28;45309;-75
2022/03/12 05:33:00;;;;;;;;;2.25;1.00;;;;;6.63;80.80;100611.88;4995655;28;46381;-76
2022/03/12 05:35:25;;;;;;;;;2.50;1.00;;;;;6.64;80.77;100608.41;4996716;28;45516;-75
2022/03/12 05:37:52;;;;;;;;;5.25;1.00;;;;;6.66;80.73;100603.13;4977519;28;45453;-77
2022/03/12 05:40:19;;;;;;;;;3.50;1.00;;;;;6.66;81.03;100605.75;4984028;28;45543;-76
2022/03/12 05:42:46;;;;;;;;;0.25;0.25;;;;;6.64;80.77;100600.50;4986881;28;45549;-75
2022/03/12 05:45:12;;;;;;;;;2.25;0.75;;;;;6.64;80.85;100607.53;4987323;28;45583;-77
2022/03/12 05:47:38;;;;;;;;;1.75;1.00;;;;;6.63;80.64;100605.78;4994767;28;45385;-76
2022/03/12 05:50:09;;;;;;;;;4.00;1.00;;;;;6.65;80.69;100612.78;4984124;28;45384;-76
2022/03/12 05:52:34;;;;;;;;;1.00;1.00;;;;;6.64;80.67;100621.53;4989014;28;45504;-74
2022/03/12 05:55:02;;;;;;;;;1.00;1.00;;;;;6.63;80.39;100618.91;4975860;28;45776;-75
2022/03/12 05:57:27;;;;;;;;;0.00;0.00;;;;;6.58;80.71;100625.03;4985086;28;45402;-76
2022/03/12 05:59:54;;;;;;;;;2.50;2.50;;;;;6.60;80.67;100618.91;4975118;28;45348;-76
2022/03/12 06:02:20;;;;;;;;;4.00;2.25;;;;;6.60;80.30;100621.53;4987572;28;46174;-76
2022/03/12 06:04:46;;;;;;;;;1.50;1.00;;;;;6.57;80.69;100610.19;4994772;28;45361;-75
2022/03/12 06:07:12;;;;;;;;;1.00;1.00;;;;;6.60;81.18;100624.16;4994847;28;45451;-76
2022/03/12 06:09:37;;;;;;;;;3.75;2.75;;;;;6.57;80.93;100625.03;4995574;28;45597;-75
2022/03/12 06:12:03;;;;;;;;;4.00;1.00;;;;;6.53;80.72;100628.56;4994035;28;46219;-76
2022/03/12 06:14:30;;;;;;;;;4.00;1.00;;;;;6.56;80.93;100634.69;4994400;28;45377;-77
2022/03/12 06:16:56;;;;;;;;;3.00;3.00;;;;;6.56;81.02;100634.69;4985982;28;45370;-76
2022/03/12 06:19:21;;;;;;;;;3.00;3.00;;;;;6.60;81.33;100642.56;4975627;28;45371;-76
2022/03/12 06:21:48;;;;;;;;;5.50;3.25;;;;;6.61;80.82;100641.69;4982394;28;46174;-76
2022/03/12 06:24:14;;;;;;;;;4.50;2.00;;;;;6.58;81.07;100643.41;4995383;28;45480;-76
2022/03/12 06:26:40;;;;;;;;;1.00;0.00;;;;;6.63;81.04;100659.16;4995484;28;45471;-76
2022/03/12 06:29:12;;;;;;;;;3.50;3.50;;;;;6.63;80.71;100650.44;4977830;28;45579;-81
2022/03/12 06:31:38;;;;;;;;;1.75;1.75;;;;;6.67;80.78;100662.69;4990488;28;46104;-80
2022/03/12 06:34:05;;;;;;;;;4.00;1.00;;;;;6.68;80.64;100660.06;4976276;28;45303;-81
2022/03/12 06:36:31;;;;;;;;;3.00;3.00;;;;;6.69;80.34;100659.16;4988672;28;45265;-82
2022/03/12 06:38:56;;;;;;;;;1.00;0.00;;;;;6.72;79.87;100661.78;4998820;28;45424;-81
2022/03/12 06:41:23;;;;;;;;;1.25;1.00;;;;;6.72;80.34;100663.53;4995233;28;45487;-80
2022/03/12 06:43:48;;;;;;;;;0.00;0.00;;;;;6.66;79.77;100661.78;4963464;28;45690;-80
2022/03/12 06:46:15;;;;;;;;;1.00;1.00;;;;;6.68;80.31;100672.28;4980924;28;45543;-80
2022/03/12 06:48:42;;;;;;;;;4.00;3.00;;;;;6.67;79.65;100671.44;4996837;28;45560;-82
2022/03/12 06:51:10;;;;;;;;;2.50;2.50;;;;;6.51;79.57;100652.22;4978649;28;46573;-79
2022/03/12 06:53:37;;;;;;;;;3.00;1.00;;;;;6.64;79.57;100686.34;4975982;28;45444;-79
2022/03/12 06:56:03;;;;;;;;;1.00;1.00;;;;;6.63;79.90;100687.19;4992236;28;45452;-80
2022/03/12 06:58:29;;;;;;;;;2.50;2.50;;;;;6.57;80.31;100688.06;4996154;28;45436;-81
2022/03/12 07:00:55;;;;;;;;;0.50;0.50;;;;;6.57;79.65;100707.34;4995689;28;45493;-81
2022/03/12 07:03:21;;;;;;;;;1.00;1.00;;;;;6.58;79.42;100710.84;4997171;28;45884;-81
2022/03/12 07:05:46;;;;;;;;;1.75;1.75;;;;;6.56;80.18;100702.97;5000291;28;45313;-81
2022/03/12 07:08:12;;;;;;;;;1.00;1.00;;;;;6.55;80.19;100716.97;4996247;28;45337;-81
2022/03/12 07:10:37;;;;;;;;;3.75;3.00;;;;;6.54;79.94;100720.50;4977099;28;46385;-80
2022/03/12 07:13:03;;;;;;;;;4.00;4.00;;;;;6.50;80.23;100710.84;4978934;28;45607;-80
2022/03/12 07:15:29;;;;;;;;;1.00;1.00;;;;;6.55;80.25;100722.22;4978819;28;45354;-81
2022/03/12 07:17:55;;;;;;;;;5.00;3.00;;;;;6.58;80.45;100724.84;4981337;28;45658;-81
2022/03/12 07:20:20;;;;;;;;;3.75;3.75;;;;;6.61;80.30;100725.75;4985720;28;45620;-76
2022/03/12 07:22:46;;;;;;;;;3.25;3.25;;;;;6.66;79.73;100713.47;4986699;28;45780;-81
2022/03/12 07:25:13;;;;;;;;;1.00;1.00;;;;;6.66;80.06;100710.84;4987825;28;45362;-81
2022/03/12 07:27:39;;;;;;;;;3.50;3.50;;;;;6.73;80.12;100715.22;4993384;28;45416;-82
2022/03/12 07:30:08;;;;;;;;;3.25;3.25;;;;;6.77;79.24;100714.31;4988227;28;45460;-80
2022/03/12 07:32:35;;;;;;;;;3.00;3.00;;;;;6.87;79.76;100713.41;4981381;28;45417;-81
2022/03/12 07:35:01;;;;;;;;;5.25;2.00;;;;;6.90;79.66;100729.16;4981075;28;45541;-82
2022/03/12 07:37:27;;;;;;;;;0.75;0.75;;;;;6.96;78.19;100728.28;4995767;28;45594;-81
2022/03/12 07:39:52;;;;;;;;;3.25;2.00;;;;;6.99;78.82;100716.91;4982470;28;45460;-82
2022/03/12 07:42:17;;;;;;;;;4.00;4.00;;;;;7.03;79.24;100723.88;4996185;28;45558;-82
2022/03/12 07:44:43;;;;;;;;;6.00;3.00;;;;;7.14;78.25;100727.34;4986873;28;45408;-79
2022/03/12 07:47:08;;;;;;;;;1.75;1.75;;;;;7.18;77.63;100722.94;4986245;28;45558;-78
2022/03/12 07:49:34;;;;;;;;;5.00;2.00;;;;;7.26;77.73;100726.44;4982814;28;46249;-76
2022/03/12 07:52:01;;;;;;;;;4.00;2.00;;;;;7.33;77.68;100729.91;4980854;28;45493;-77
2022/03/12 07:54:27;;;;;;;;;4.00;4.00;;;;;7.39;77.75;100730.75;4986103;28;45459;-80
2022/03/12 07:56:52;;;;;;;;;4.25;2.50;;;;;7.28;77.71;100712.38;4983697;28;45406;-80
2022/03/12 07:59:18;;;;;;;;;3.50;2.00;;;;;7.43;78.01;100735.13;4974007;28;46864;-76
2022/03/12 08:01:44;;;;;;;;;1.75;1.75;;;;;7.49;77.84;100744.75;4990948;28;45380;-80
2022/03/12 08:04:10;;;;;;;;;1.00;1.00;;;;;7.54;77.72;100753.47;4974800;28;45421;-77
2022/03/12 08:06:36;;;;;;;;;2.75;1.50;;;;;7.56;76.72;100756.09;4994846;28;45632;-83
2022/03/12 08:09:03;;;;;;;;;4.00;4.00;;;;;7.54;77.03;100779.78;4989745;28;45995;-83
2022/03/12 08:11:29;;;;;;;;;2.00;2.00;;;;;7.47;77.49;100772.81;4988893;28;45551;-81
2022/03/12 08:14:15;;;;;;;;;2.00;2.00;;;;;7.52;76.62;100786.81;4997351;28;45490;-81
2022/03/12 08:16:41;;;;;;;;;1.00;1.00;;;;;7.42;76.88;100766.69;4976114;28;45456;-82
2022/03/12 08:19:08;;;;;;;;;3.00;3.00;;;;;7.47;76.95;100778.09;4995099;28;45342;-82
2022/03/12 08:21:34;;;;;;;;;2.00;2.00;;;;;7.45;77.18;100782.44;4989000;28;45378;-81
2022/03/12 08:24:02;;;;;;;;;4.00;4.00;;;;;7.47;77.24;100780.72;4991189;28;45413;-81
2022/03/12 08:26:27;;;;;;;;;3.25;3.25;;;;;7.52;77.48;100792.06;4988092;28;45433;-81
2022/03/12 08:28:53;;;;;;;;;0.75;0.75;;;;;7.53;77.30;100798.19;4982856;28;45445;-81
2022/03/12 08:31:19;;;;;;;;;1.75;1.00;;;;;7.55;76.70;100796.47;4992867;28;45420;-82
2022/03/12 08:33:47;;;;;;;;;5.00;3.00;;;;;7.59;76.66;100793.81;4995471;28;45663;-77
2022/03/12 08:36:14;;;;;;;;;3.00;3.00;;;;;7.62;77.39;100800.78;4981693;28;45388;-76
2022/03/12 08:38:40;;;;;;;;;4.00;2.00;;;;;7.63;76.53;100789.41;4979438;28;46226;-79
2022/03/12 08:41:08;;;;;;;;;1.00;1.00;;;;;7.66;76.79;100789.38;4987974;28;45416;-83
2022/03/12 08:43:36;;;;;;;;;2.75;2.00;;;;;7.63;77.14;100795.53;4994926;28;45516;-83
2022/03/12 08:46:03;;;;;;;;;1.75;1.75;;;;;7.67;77.13;100800.78;4991554;28;45469;-82
2022/03/12 08:48:30;;;;;;;;;3.00;3.00;;;;;7.69;77.59;100794.63;4979979;28;47142;-81
2022/03/12 08:50:55;;;;;;;;;8.00;2.50;;;;;7.76;77.47;100790.22;4996236;28;45581;-83
2022/03/12 08:53:21;;;;;;;;;1.50;1.50;;;;;7.84;76.90;100798.94;4966058;28;44933;-82
2022/03/12 08:55:48;;;;;;;;;2.00;2.00;;;;;7.85;76.13;100787.56;4992887;28;45513;-82
2022/03/12 08:58:14;;;;;;;;;4.00;4.00;;;;;7.89;75.95;100772.59;4996837;28;45573;-83
2022/03/12 09:00:40;;;;;;;;;2.00;1.00;;;;;8.09;76.70;100796.16;4995773;28;45542;-78
2022/03/12 09:03:05;;;;;;;;;2.50;1.25;;;;;8.15;75.85;100789.13;4989531;28;45546;-78
2022/03/12 09:05:31;;;;;;;;;2.00;2.00;;;;;8.21;75.12;100787.31;4991174;28;45457;-78
2022/03/12 09:07:57;;;;;;;;;2.50;1.50;;;;;8.28;75.24;100794.31;4985038;28;46277;-78
2022/03/12 09:10:23;;;;;;;;;6.50;2.00;;;;;8.28;75.87;100771.47;4986738;28;45566;-82
2022/03/12 09:12:48;;;;;;;;;1.00;1.00;;;;;8.49;75.90;100788.03;4959265;28;45522;-77
2022/03/12 09:15:21;;;;;;;;;1.75;1.00;;;;;8.52;75.04;100798.56;4985114;28;45588;-78
2022/03/12 09:17:46;;;;;;;;;5.00;4.00;;;;;8.53;75.51;100793.25;4991748;28;45434;-77
2022/03/12 09:20:14;;;;;;;;;2.00;2.00;;;;;8.59;75.32;100788.81;4981865;28;45433;-76
2022/03/12 09:22:40;;;;;;;;;1.75;1.75;;;;;8.62;75.02;100794.94;4964547;28;45341;-77
2022/03/12 09:25:08;;;;;;;;;6.75;1.75;;;;;8.64;75.87;100798.44;4978801;28;45656;-77
2022/03/12 09:27:34;;;;;;;;;2.00;2.00;;;;;8.70;74.97;100787.84;4985627;28;46226;-77
2022/03/12 09:29:59;;;;;;;;;1.00;1.00;;;;;8.69;74.99;100775.53;4993589;28;45527;-78
2022/03/12 09:32:25;;;;;;;;;1.00;1.00;;;;;8.80;75.05;100782.50;4981659;28;45849;-77
2022/03/12 09:34:51;;;;;;;;;5.00;4.00;;;;;8.91;74.70;100791.16;4989833;28;45468;-77
2022/03/12 09:37:17;;;;;;;;;3.50;2.00;;;;;8.96;74.91;100786.72;4981482;28;46197;-76
2022/03/12 09:39:43;;;;;;;;;1.50;1.50;;;;;8.97;74.85;100793.72;4983566;28;45520;-76
2022/03/12 09:42:09;;;;;;;;;3.50;2.00;;;;;8.93;74.86;100778.84;4981523;28;45421;-76
2022/03/12 09:44:34;;;;;;;;;3.25;1.50;;;;;9.00;74.51;100792.84;4982723;28;45420;-83
2022/03/12 09:46:59;;;;;;;;;1.75;0.25;;;;;9.02;75.04;100770.84;4988736;28;46188;-82
2022/03/12 09:49:25;;;;;;;;;2.50;1.00;;;;;9.11;74.70;100771.63;4979704;28;45430;-82
2022/03/12 09:51:50;;;;;;;;;0.75;0.75;;;;;9.18;74.62;100770.69;4989620;28;45381;-82
2022/03/12 09:54:18;;;;;;;;;5.25;4.25;;;;;9.25;74.73;100769.72;4991192;28;45270;-83
2022/03/12 09:56:43;;;;;;;;;3.50;3.50;;;;;9.39;74.72;100767.78;4982959;28;46056;-83
2022/03/12 09:59:09;;;;;;;;;3.50;1.75;;;;;9.58;73.37;100775.47;4998670;28;44823;-77
2022/03/12 10:01:35;;;;;;;;;2.50;2.50;;;;;9.69;73.02;100770.94;4994502;28;45484;-81
2022/03/12 10:04:01;;;;;;;;;1.00;1.00;;;;;10.00;72.30;100783.72;4996371;28;45484;-76
2022/03/12 10:06:30;;;;;;;;;1.25;1.25;;;;;10.12;71.60;100780.03;4989173;28;45408;-76
2022/03/12 10:08:56;;;;;;;;;0.75;0.75;;;;;10.33;71.30;100784.13;4968254;28;45426;-77
2022/03/12 10:11:22;;;;;;;;;3.50;2.00;;;;;10.44;70.41;100782.19;4978216;28;45464;-78
2022/03/12 10:13:48;;;;;;;;;4.25;2.00;;;;;10.58;69.67;100774.06;4995189;28;45525;-77
2022/03/12 10:16:14;;;;;;;;;2.00;2.00;;;;;10.76;69.36;100774.63;5001631;28;45556;-77
2022/03/12 10:18:40;;;;;;;;;5.25;1.50;;;;;10.93;69.15;100779.59;4982879;28;45452;-77
2022/03/12 10:21:05;;;;;;;;;2.00;2.00;;;;;10.99;68.31;100768.91;4993344;28;45372;-76
2022/03/12 10:23:31;;;;;;;;;2.50;2.50;;;;;11.03;68.53;100755.59;4997944;28;45377;-77
2022/03/12 10:25:58;;;;;;;;;1.50;1.50;;;;;11.00;67.33;100734.50;5000089;28;45382;-87
2022/03/12 10:28:24;;;;;;;;;2.00;2.00;;;;;11.03;67.89;100723.00;4994060;28;45390;-77
2022/03/12 10:30:49;;;;;;;;;2.00;1.25;;;;;11.37;67.15;100775.22;5000605;28;45341;-82
2022/03/12 10:33:23;;;;;;;;;2.50;2.50;;;;;11.42;66.68;100770.75;4965195;28;45548;-84
2022/03/12 10:35:49;;;;;;;;;5.00;3.50;;;;;11.35;66.32;100756.72;5004411;28;46143;-82
2022/03/12 10:38:15;;;;;;;;;3.00;3.00;;;;;11.40;66.80;100764.59;5011080;28;45403;-83
2022/03/12 10:40:41;;;;;;;;;2.00;2.00;;;;;11.19;66.86;100734.16;4979643;28;45445;-86
2022/03/12 10:43:13;;;;;;;;;2.00;2.00;;;;;11.48;66.47;100767.97;5001157;28;45665;-77
2022/03/12 10:45:44;;;;;;;;;5.00;5.00;;;;;11.37;66.89;100775.22;4999237;28;46162;-77
2022/03/12 10:48:12;;;;;;;;;4.00;4.00;;;;;11.30;66.98;100752.47;4985176;28;45652;-87
2022/03/12 10:50:40;;;;;;;;;8.00;4.75;;;;;11.41;66.89;100766.34;4999843;28;45524;-78
2022/03/12 10:53:07;;;;;;;;;1.75;1.75;;;;;11.40;66.31;100755.78;4984351;28;45433;-76
2022/03/12 10:55:36;;;;;;;;;1.50;1.50;;;;;11.40;66.24;100761.94;4981582;28;46224;-77
2022/03/12 10:58:12;;;;;;;;;4.75;4.00;;;;;11.42;66.50;100768.09;4998040;28;45424;-78
2022/03/12 11:00:41;;;;;;;;;3.50;3.50;;;;;11.39;66.62;100752.28;4999500;28;45566;-77
2022/03/12 11:03:12;;;;;;;;;3.00;1.50;;;;;11.32;67.03;100753.28;5000045;28;45535;-77
2022/03/12 11:05:39;;;;;;;;;3.00;3.00;;;;;11.23;67.07;100762.28;5000229;28;45548;-77
2022/03/12 11:08:06;;;;;;;;;1.00;1.00;;;;;11.20;66.85;100752.66;5002437;28;45525;-77
2022/03/12 11:10:37;;;;;;;;;4.25;4.00;;;;;11.14;67.47;100742.16;5002951;28;45638;-76
2022/03/12 11:13:03;;;;;;;;;1.50;1.50;;;;;11.16;67.46;100748.31;5004555;28;45389;-76
2022/03/12 11:15:32;;;;;;;;;5.25;4.25;;;;;11.11;67.49;100741.34;5005608;28;46902;-76
2022/03/12 11:17:58;;;;;;;;;1.00;1.00;;;;;10.98;67.83;100730.16;5002689;28;45447;-77
2022/03/12 11:20:24;;;;;;;;;1.50;1.50;;;;;10.98;68.01;100743.38;5001702;28;45435;-77
2022/03/12 11:23:12;;;;;;;;;4.25;4.25;;;;;10.96;67.91;100742.53;4996970;28;45536;-77
2022/03/12 11:25:58;;;;;;;;;2.50;2.50;;;;;10.89;68.28;100727.69;4980238;28;45415;-77
2022/03/12 11:28:24;;;;;;;;;2.25;1.00;;;;;11.00;68.04;100723.91;4996788;28;45498;-77
2022/03/12 11:30:53;;;;;;;;;5.00;1.75;;;;;10.93;67.98;100706.44;4984078;28;45469;-76
2022/03/12 11:33:21;;;;;;;;;1.00;1.00;;;;;10.94;68.05;100723.19;5004319;28;45511;-77